Flight Track Log - Related Links

Times and Time Zones

All times are in EDT time to prevent confusion due to time zone crossing. See the GJS3710 flight status page for this flight to view local times or setup timezone preferences in your user account.

Time Position Orientation Groundspeed Altitude Reporting Facility
EDT Latitude Longitude Course Direction KTS MPH feet Rate Location/Type
Fri 10:03:40 PM 42.0000 -87.9333 66° East 166 191 1,600  Level Chicago TRACON
Fri 10:04:34 PM 42.0333 -87.9167 20° North 211 243 3,300 1,947 Climbing Chicago TRACON
Fri 10:05:34 PM 42.0833 -87.8500 45° Northeast 254 292 5,300 1,979 Climbing Chicago TRACON
Fri 10:06:08 PM 42.1119 -87.8183 39° Northeast 261 300 6,400 2,375 Climbing Chicago Center
Fri 10:07:10 PM 42.1517 -87.7242 60° Northeast 295 339 9,100 2,468 Climbing Chicago Center
Fri 10:08:00 PM 42.2361 -87.1416 66° East  Level FlightAware Approximate
Fri 10:08:12 PM 42.1736 -87.6097 75° East 313 360 11,500  Level Chicago Center
Fri 10:09:13 PM 42.1981 -87.4839 75° East 346 398 12,900 1,561 Climbing Chicago Center
Fri 10:10:15 PM 42.2319 -87.3125 75° East 394 453 14,700 1,659 Climbing Chicago Center
Fri 10:11:16 PM 42.2592 -87.1614 76° East 414 476 16,300 1,561 Climbing Chicago Center
Fri 10:12:18 PM 42.2825 -87.0072 78° East 420 483 17,900 1,597 Climbing Chicago Center
Fri 10:13:20 PM 42.2869 -86.8475 88° East 427 491 19,600 1,659 Climbing Chicago Center
Fri 10:14:21 PM 42.2944 -86.6686 87° East 432 497 21,300 1,512 Climbing Chicago Center
Fri 10:15:23 PM 42.3011 -86.5042 87° East 441 507 22,700 1,306 Climbing Chicago Center
Fri 10:16:25 PM 42.3069 -86.3358 87° East 448 516 24,000 1,268 Climbing Chicago Center
Fri 10:17:26 PM 42.3125 -86.1650 87° East 456 525 25,300 1,171 Climbing Chicago Center
Fri 10:18:28 PM 42.3144 -85.9933 89° East 461 531 26,400 1,024 Climbing Chicago Center
Fri 10:19:29 PM 42.3114 -85.8172 91° East 471 542 27,400 829 Climbing Chicago Center
Fri 10:20:31 PM 42.3094 -85.6356 91° East 483 556 28,100 780 Climbing Chicago Center
Fri 10:21:32 PM 42.3064 -85.4081 91° East 503 579 29,000 780 Climbing Chicago Center
Fri 10:22:34 PM 42.3033 -85.2158 91° East 512 589 29,700 683 Climbing Chicago Center
Fri 10:23:35 PM 42.2997 -85.0225 91° East 518 596 30,400 683 Climbing Chicago Center
Fri 10:24:37 PM 42.2964 -84.8269 91° East 523 602 31,100 683 Climbing Chicago Center
Fri 10:25:38 PM 42.2900 -84.6311 92° East 524 603 31,800 585 Climbing Chicago Center
Fri 10:26:40 PM 42.2933 -84.4331 89° East 531 611 32,300 545 Climbing Chicago Center
Fri 10:27:17 PM 42.3106 -84.2981 80° East 523 602 32,700 804 Climbing Cleveland Center
Fri 10:28:17 PM 42.3375 -84.1003 79° East 533 613 33,600 1,000 Climbing Cleveland Center
Fri 10:29:17 PM 42.3664 -83.9050 79° East 533 613 34,700 850 Climbing Cleveland Center
Fri 10:30:17 PM 42.3947 -83.7069 79° East 538 619 35,300 700 Climbing Cleveland Center
Fri 10:31:17 PM 42.4092 -83.4825 85° East 555 639 36,100 750 Climbing Cleveland Center
Fri 10:32:17 PM 42.4183 -83.2750 87° East 544 626 36,800 700 Climbing Cleveland Center
Fri 10:33:17 PM 42.4250 -83.0725 87° East 544 626 37,500 700 Climbing Cleveland Center
Fri 10:34:17 PM 42.4311 -82.8703 88° East 544 626 38,200 700 Climbing Cleveland Center
Fri 10:35:17 PM 42.4392 -82.6681 87° East 534 615 38,900 400 Climbing Cleveland Center
Fri 10:36:17 PM 42.4425 -82.4711 89° East 527 606 39,000 50 Climbing Cleveland Center
Fri 10:37:17 PM 42.4500 -82.2717 87° East 532 612 39,000  Level Cleveland Center
Fri 10:38:17 PM 42.4542 -82.1083 88° East 537 618 39,000  Level Cleveland Center
Fri 10:39:17 PM 42.4614 -81.8553 88° East 546 628 39,000  Level Cleveland Center
Fri 10:40:17 PM 42.4678 -81.6500 88° East 551 634 39,000  Level Cleveland Center
Fri 10:41:17 PM 42.4694 -81.4361 89° East 556 640 39,000  Level Cleveland Center
Fri 10:42:17 PM 42.4750 -81.2278 88° East 550 633 39,000  Level Cleveland Center
Fri 10:43:17 PM 42.4781 -81.0194 89° East 550 633 39,000  Level Cleveland Center
Fri 10:44:17 PM 42.4786 -80.8111 90° East 550 633 39,000  Level Cleveland Center
Fri 10:45:17 PM 42.4831 -80.6225 88° East 555 639 39,000  Level Cleveland Center
Fri 10:46:17 PM 42.4831 -80.4086 90° East 555 639 39,000  Level Cleveland Center
Fri 10:47:17 PM 42.4867 -80.2031 89° East 547 629 39,000  Level Cleveland Center
Fri 10:48:17 PM 42.4878 -79.9947 90° East 555 639 39,000  Level Cleveland Center
Fri 10:49:17 PM 42.4908 -79.7864 89° East 550 633 39,000  Level Cleveland Center
Fri 10:50:17 PM 42.4956 -79.5778 88° East 550 633 39,000  Level Cleveland Center
Fri 10:51:17 PM 42.4914 -79.3697 91° East 550 633 39,000  Level Cleveland Center
Fri 10:52:17 PM 42.5014 -79.1639 86° East 550 633 39,000  Level Cleveland Center
Fri 10:53:17 PM 42.5133 -78.9550 85° East 555 639 39,000  Level Cleveland Center
Fri 10:54:17 PM 42.5289 -78.7461 84° East 555 639 39,000  Level Cleveland Center
Fri 10:55:17 PM 42.5422 -78.5372 85° East 555 639 39,000  Level Cleveland Center
Fri 10:56:17 PM 42.5550 -78.3283 85° East 555 639 39,000  Level Cleveland Center
Fri 10:57:17 PM 42.5675 -78.1219 85° East 555 639 39,000  Level Cleveland Center
Fri 10:58:17 PM 42.5794 -77.9128 85° East 555 639 39,000 -600 Level Cleveland Center
Fri 10:59:17 PM 42.5947 -77.6836 85° East 555 639 37,800 -1,700 Descending Cleveland Center
Fri 11:00:17 PM 42.6058 -77.4717 86° East 560 644 35,600 -2,088 Descending Cleveland Center
Fri 11:02:41 PM 42.6303 -76.9872 86° East 566 651 30,700 -1,932 Descending Boston Center
Fri 11:03:42 PM 42.6431 -76.7733 85° East 561 646 29,000 -850 Descending Boston Center
Fri 11:04:41 PM 42.6506 -76.5650 87° East 554 638 29,000  Level Boston Center
Fri 11:05:42 PM 42.6622 -76.3567 86° East 549 632 29,000 -197 Level Boston Center
Fri 11:06:43 PM 42.6761 -76.1258 85° East 549 632 28,600 -1,373 Descending Boston Center
Fri 11:07:40 PM 42.6808 -75.9169 88° East 549 632 26,300 -2,420 Descending Boston Center
Fri 11:08:42 PM 42.6883 -75.7311 87° East 525 604 23,800 -2,250 Descending Boston Center
Fri 11:09:40 PM 42.6953 -75.5533 87° East 493 567 21,800 -2,034 Descending Boston Center
Fri 11:10:40 PM 42.7003 -75.3728 88° East 478 550 19,800 -1,918 Descending Boston Center
Fri 11:11:42 PM 42.7089 -75.1981 86° East 478 550 17,900 -1,800 Descending Boston Center
Fri 11:12:40 PM 42.7147 -75.0314 87° East 466 536 16,200 -1,826 Descending Boston Center
Fri 11:13:37 PM 42.7203 -74.8764 87° East 429 494 14,400 -1,736 Descending Boston Center
Fri 11:14:41 PM 42.7217 -74.7094 89° East 422 486 12,700 -1,597 Descending Boston Center
Fri 11:15:41 PM 42.7161 -74.5567 93° East 407 468 11,100 -1,140 Descending Boston Center
Fri 11:16:42 PM 42.6872 -74.4286 107° East 362 417 10,400 -992 Descending Boston Center
Fri 11:17:42 PM 42.6642 -74.3119 105° East 334 384 9,100 -1,700 Descending Boston Center
Fri 11:18:42 PM 42.6411 -74.1986 105° East 314 361 7,000 -1,831 Descending Boston Center
Fri 11:19:40 PM 42.6175 -74.0933 107° East 299 344 5,500 -1,513 Descending Boston Center
Fri 11:20:41 PM 42.5961 -73.9886 105° East 289 333 4,000 -1,111 Descending Boston Center
Fri 11:21:55 PM 42.5706 -73.8667 106° East 283 326 3,000 -807 Descending Boston Center
Fri 11:22:40 PM 42.5964 -73.8022 61° Northeast 237 273 2,400 -571 Descending Boston Center
Fri 11:23:40 PM 42.6281 -73.7664 40° Northeast 183 211 2,000 -600 Descending Boston Center
Fri 11:24:50 PM 42.6922 -73.8072 335° Northwest 113 130 1,100 -682 Descending Boston Center
Fri 11:25:52 PM 42.7297 -73.8081 359° North 125 144 500 -581 Descending Boston Center

Login

Don't have an account? Register now (free) for customized features, flight alerts, and more!